sensor_id;sensor_type;location;lat;lon;timestamp;P1;durP1;ratioP1;P2;durP2;ratioP2
22502;SDS011;11418;48.118;9.992;2022-07-29T00:01:49;13.32;;;11.23;;
22502;SDS011;11418;48.118;9.992;2022-07-29T00:05:52;14.05;;;10.05;;
22502;SDS011;11418;48.118;9.992;2022-07-29T00:09:53;13.02;;;10.93;;
22502;SDS011;11418;48.118;9.992;2022-07-29T00:13:53;12.85;;;11.27;;
22502;SDS011;11418;48.118;9.992;2022-07-29T00:17:54;19.80;;;13.15;;
22502;SDS011;11418;48.118;9.992;2022-07-29T00:21:54;16.63;;;11.65;;
22502;SDS011;11418;48.118;9.992;2022-07-29T00:25:55;15.07;;;13.45;;
22502;SDS011;11418;48.118;9.992;2022-07-29T00:29:55;16.02;;;13.60;;
22502;SDS011;11418;48.118;9.992;2022-07-29T00:33:56;21.58;;;12.98;;
22502;SDS011;11418;48.118;9.992;2022-07-29T00:37:56;15.32;;;12.48;;
22502;SDS011;11418;48.118;9.992;2022-07-29T00:41:57;14.10;;;12.40;;
22502;SDS011;11418;48.118;9.992;2022-07-29T00:45:57;20.27;;;11.70;;
22502;SDS011;11418;48.118;9.992;2022-07-29T00:49:58;12.05;;;10.50;;
22502;SDS011;11418;48.118;9.992;2022-07-29T00:53:58;12.95;;;9.40;;
22502;SDS011;11418;48.118;9.992;2022-07-29T00:57:59;14.07;;;9.93;;
22502;SDS011;11418;48.118;9.992;2022-07-29T01:02:00;11.35;;;8.85;;
22502;SDS011;11418;48.118;9.992;2022-07-29T01:06:02;11.05;;;9.90;;
22502;SDS011;11418;48.118;9.992;2022-07-29T01:10:03;11.38;;;10.15;;
22502;SDS011;11418;48.118;9.992;2022-07-29T01:14:06;13.68;;;10.90;;
22502;SDS011;11418;48.118;9.992;2022-07-29T01:18:15;14.70;;;10.13;;
22502;SDS011;11418;48.118;9.992;2022-07-29T01:30:39;16.10;;;9.45;;
22502;SDS011;11418;48.118;9.992;2022-07-29T01:34:49;10.77;;;8.20;;
22502;SDS011;11418;48.118;9.992;2022-07-29T01:38:57;11.63;;;8.48;;
22502;SDS011;11418;48.118;9.992;2022-07-29T01:43:27;12.40;;;9.68;;
22502;SDS011;11418;48.118;9.992;2022-07-29T01:48:00;10.40;;;8.38;;
22502;SDS011;11418;48.118;9.992;2022-07-29T01:52:10;14.80;;;7.53;;
22502;SDS011;11418;48.118;9.992;2022-07-29T01:56:16;13.68;;;8.20;;
22502;SDS011;11418;48.118;9.992;2022-07-29T02:00:18;12.50;;;8.13;;
22502;SDS011;11418;48.118;9.992;2022-07-29T02:04:19;10.27;;;7.95;;
22502;SDS011;11418;48.118;9.992;2022-07-29T02:08:21;11.50;;;8.07;;
22502;SDS011;11418;48.118;9.992;2022-07-29T02:12:23;11.50;;;7.95;;
22502;SDS011;11418;48.118;9.992;2022-07-29T02:16:25;14.68;;;8.15;;
22502;SDS011;11418;48.118;9.992;2022-07-29T02:20:28;10.13;;;7.50;;
22502;SDS011;11418;48.118;9.992;2022-07-29T02:24:30;11.38;;;6.60;;
22502;SDS011;11418;48.118;9.992;2022-07-29T02:28:32;11.32;;;6.60;;
22502;SDS011;11418;48.118;9.992;2022-07-29T02:32:37;11.75;;;7.97;;
22502;SDS011;11418;48.118;9.992;2022-07-29T02:36:41;9.23;;;7.35;;
22502;SDS011;11418;48.118;9.992;2022-07-29T02:40:43;15.02;;;8.02;;
22502;SDS011;11418;48.118;9.992;2022-07-29T02:44:45;9.90;;;7.57;;
22502;SDS011;11418;48.118;9.992;2022-07-29T02:49:33;10.35;;;7.45;;
22502;SDS011;11418;48.118;9.992;2022-07-29T02:53:14;9.07;;;7.32;;
22502;SDS011;11418;48.118;9.992;2022-07-29T02:57:22;13.63;;;7.30;;
22502;SDS011;11418;48.118;9.992;2022-07-29T03:01:30;9.48;;;6.15;;
22502;SDS011;11418;48.118;9.992;2022-07-29T03:05:32;11.82;;;5.80;;
22502;SDS011;11418;48.118;9.992;2022-07-29T03:09:35;11.55;;;7.05;;
22502;SDS011;11418;48.118;9.992;2022-07-29T03:13:36;12.85;;;8.20;;
22502;SDS011;11418;48.118;9.992;2022-07-29T03:17:38;15.25;;;9.02;;
22502;SDS011;11418;48.118;9.992;2022-07-29T03:21:39;12.20;;;8.30;;
22502;SDS011;11418;48.118;9.992;2022-07-29T03:25:40;16.00;;;7.78;;
22502;SDS011;11418;48.118;9.992;2022-07-29T03:29:40;11.27;;;7.15;;
22502;SDS011;11418;48.118;9.992;2022-07-29T03:33:41;13.27;;;7.30;;
22502;SDS011;11418;48.118;9.992;2022-07-29T03:37:42;10.82;;;8.07;;
22502;SDS011;11418;48.118;9.992;2022-07-29T03:41:44;14.32;;;8.73;;
22502;SDS011;11418;48.118;9.992;2022-07-29T03:45:47;13.95;;;9.43;;
22502;SDS011;11418;48.118;9.992;2022-07-29T03:49:50;12.45;;;9.70;;
22502;SDS011;11418;48.118;9.992;2022-07-29T03:53:53;13.30;;;9.98;;
22502;SDS011;11418;48.118;9.992;2022-07-29T03:57:54;13.00;;;9.50;;
22502;SDS011;11418;48.118;9.992;2022-07-29T04:01:56;11.82;;;7.47;;
22502;SDS011;11418;48.118;9.992;2022-07-29T04:06:01;15.18;;;8.05;;
22502;SDS011;11418;48.118;9.992;2022-07-29T04:10:05;17.88;;;9.32;;
22502;SDS011;11418;48.118;9.992;2022-07-29T04:14:07;14.90;;;9.45;;
22502;SDS011;11418;48.118;9.992;2022-07-29T04:18:08;17.58;;;9.65;;
22502;SDS011;11418;48.118;9.992;2022-07-29T04:22:08;13.43;;;9.02;;
22502;SDS011;11418;48.118;9.992;2022-07-29T04:26:09;16.80;;;9.13;;
22502;SDS011;11418;48.118;9.992;2022-07-29T04:30:10;13.18;;;9.10;;
22502;SDS011;11418;48.118;9.992;2022-07-29T04:34:12;11.63;;;8.23;;
22502;SDS011;11418;48.118;9.992;2022-07-29T04:38:12;8.52;;;7.07;;
22502;SDS011;11418;48.118;9.992;2022-07-29T04:42:13;7.10;;;6.10;;
22502;SDS011;11418;48.118;9.992;2022-07-29T04:46:13;9.40;;;6.63;;
22502;SDS011;11418;48.118;9.992;2022-07-29T04:50:14;7.22;;;5.00;;
22502;SDS011;11418;48.118;9.992;2022-07-29T04:54:14;7.60;;;4.50;;
22502;SDS011;11418;48.118;9.992;2022-07-29T04:58:15;8.30;;;4.28;;
22502;SDS011;11418;48.118;9.992;2022-07-29T05:02:15;4.38;;;3.65;;
22502;SDS011;11418;48.118;9.992;2022-07-29T05:06:16;11.75;;;4.60;;
22502;SDS011;11418;48.118;9.992;2022-07-29T05:10:17;4.70;;;3.83;;
22502;SDS011;11418;48.118;9.992;2022-07-29T05:14:17;3.55;;;3.25;;
22502;SDS011;11418;48.118;9.992;2022-07-29T05:18:18;7.43;;;3.60;;
22502;SDS011;11418;48.118;9.992;2022-07-29T05:22:18;3.80;;;2.65;;
22502;SDS011;11418;48.118;9.992;2022-07-29T05:26:20;5.47;;;2.25;;
22502;SDS011;11418;48.118;9.992;2022-07-29T05:30:20;4.00;;;2.40;;
22502;SDS011;11418;48.118;9.992;2022-07-29T05:34:21;3.97;;;2.40;;
22502;SDS011;11418;48.118;9.992;2022-07-29T05:38:21;2.97;;;2.67;;
22502;SDS011;11418;48.118;9.992;2022-07-29T05:42:22;8.63;;;2.72;;
22502;SDS011;11418;48.118;9.992;2022-07-29T05:46:23;9.70;;;2.78;;
22502;SDS011;11418;48.118;9.992;2022-07-29T05:50:24;4.05;;;2.28;;
22502;SDS011;11418;48.118;9.992;2022-07-29T05:54:24;6.43;;;2.55;;
22502;SDS011;11418;48.118;9.992;2022-07-29T05:58:25;2.50;;;2.30;;
22502;SDS011;11418;48.118;9.992;2022-07-29T06:02:26;6.43;;;2.45;;
22502;SDS011;11418;48.118;9.992;2022-07-29T06:06:26;5.05;;;2.38;;
22502;SDS011;11418;48.118;9.992;2022-07-29T06:10:27;3.97;;;2.13;;
22502;SDS011;11418;48.118;9.992;2022-07-29T06:14:27;5.47;;;2.40;;
22502;SDS011;11418;48.118;9.992;2022-07-29T06:18:28;7.22;;;2.00;;
22502;SDS011;11418;48.118;9.992;2022-07-29T06:22:28;3.15;;;2.00;;
22502;SDS011;11418;48.118;9.992;2022-07-29T06:26:29;3.58;;;1.88;;
22502;SDS011;11418;48.118;9.992;2022-07-29T06:30:30;3.90;;;2.20;;
22502;SDS011;11418;48.118;9.992;2022-07-29T06:34:30;2.20;;;1.75;;
22502;SDS011;11418;48.118;9.992;2022-07-29T06:38:32;3.08;;;2.20;;
22502;SDS011;11418;48.118;9.992;2022-07-29T06:42:33;2.50;;;2.10;;
22502;SDS011;11418;48.118;9.992;2022-07-29T06:46:33;4.28;;;2.60;;
22502;SDS011;11418;48.118;9.992;2022-07-29T06:50:34;2.88;;;2.30;;
22502;SDS011;11418;48.118;9.992;2022-07-29T06:54:34;4.78;;;2.80;;
22502;SDS011;11418;48.118;9.992;2022-07-29T06:58:35;3.50;;;2.75;;
22502;SDS011;11418;48.118;9.992;2022-07-29T07:02:36;4.60;;;2.72;;
22502;SDS011;11418;48.118;9.992;2022-07-29T07:06:36;6.43;;;2.88;;
22502;SDS011;11418;48.118;9.992;2022-07-29T07:10:37;3.92;;;2.95;;
22502;SDS011;11418;48.118;9.992;2022-07-29T07:14:38;7.30;;;2.60;;
22502;SDS011;11418;48.118;9.992;2022-07-29T07:18:40;4.18;;;2.47;;
22502;SDS011;11418;48.118;9.992;2022-07-29T07:22:41;6.55;;;2.95;;
22502;SDS011;11418;48.118;9.992;2022-07-29T07:26:41;4.60;;;2.60;;
22502;SDS011;11418;48.118;9.992;2022-07-29T07:30:42;5.07;;;2.92;;
22502;SDS011;11418;48.118;9.992;2022-07-29T07:34:43;2.67;;;2.33;;
22502;SDS011;11418;48.118;9.992;2022-07-29T07:38:43;4.63;;;2.38;;
22502;SDS011;11418;48.118;9.992;2022-07-29T07:42:44;3.47;;;2.83;;
22502;SDS011;11418;48.118;9.992;2022-07-29T07:46:45;3.13;;;2.35;;
22502;SDS011;11418;48.118;9.992;2022-07-29T07:50:45;7.32;;;2.60;;
22502;SDS011;11418;48.118;9.992;2022-07-29T07:54:46;3.42;;;2.60;;
22502;SDS011;11418;48.118;9.992;2022-07-29T07:58:47;2.97;;;2.67;;
22502;SDS011;11418;48.118;9.992;2022-07-29T08:02:47;2.83;;;2.22;;
22502;SDS011;11418;48.118;9.992;2022-07-29T08:06:48;2.65;;;2.10;;
22502;SDS011;11418;48.118;9.992;2022-07-29T08:10:49;3.42;;;2.65;;
22502;SDS011;11418;48.118;9.992;2022-07-29T08:14:53;3.03;;;2.38;;
22502;SDS011;11418;48.118;9.992;2022-07-29T08:18:54;3.65;;;2.42;;
22502;SDS011;11418;48.118;9.992;2022-07-29T08:22:56;3.83;;;2.40;;
22502;SDS011;11418;48.118;9.992;2022-07-29T08:26:57;5.65;;;3.30;;
22502;SDS011;11418;48.118;9.992;2022-07-29T08:30:57;3.53;;;2.60;;
22502;SDS011;11418;48.118;9.992;2022-07-29T08:34:58;8.85;;;2.83;;
22502;SDS011;11418;48.118;9.992;2022-07-29T08:39:00;3.20;;;2.60;;
22502;SDS011;11418;48.118;9.992;2022-07-29T08:43:08;4.15;;;2.90;;
22502;SDS011;11418;48.118;9.992;2022-07-29T08:47:09;4.13;;;2.90;;
22502;SDS011;11418;48.118;9.992;2022-07-29T08:51:14;4.30;;;2.70;;
22502;SDS011;11418;48.118;9.992;2022-07-29T08:55:16;3.10;;;2.08;;
22502;SDS011;11418;48.118;9.992;2022-07-29T08:59:19;3.13;;;2.30;;
22502;SDS011;11418;48.118;9.992;2022-07-29T09:03:24;2.60;;;2.40;;
22502;SDS011;11418;48.118;9.992;2022-07-29T09:07:27;3.85;;;2.70;;
22502;SDS011;11418;48.118;9.992;2022-07-29T09:11:28;2.92;;;2.63;;
22502;SDS011;11418;48.118;9.992;2022-07-29T09:15:28;3.63;;;2.67;;
22502;SDS011;11418;48.118;9.992;2022-07-29T09:19:30;2.78;;;2.30;;
22502;SDS011;11418;48.118;9.992;2022-07-29T09:23:31;4.00;;;2.70;;
22502;SDS011;11418;48.118;9.992;2022-07-29T09:27:32;4.75;;;2.42;;
22502;SDS011;11418;48.118;9.992;2022-07-29T09:31:34;3.22;;;2.03;;
22502;SDS011;11418;48.118;9.992;2022-07-29T09:35:35;3.90;;;2.30;;
22502;SDS011;11418;48.118;9.992;2022-07-29T09:39:37;3.00;;;2.10;;
22502;SDS011;11418;48.118;9.992;2022-07-29T09:43:58;2.88;;;2.25;;
22502;SDS011;11418;48.118;9.992;2022-07-29T09:48:00;2.25;;;2.05;;
22502;SDS011;11418;48.118;9.992;2022-07-29T09:52:17;4.00;;;2.13;;
22502;SDS011;11418;48.118;9.992;2022-07-29T09:56:17;3.38;;;2.17;;
22502;SDS011;11418;48.118;9.992;2022-07-29T10:00:19;4.55;;;2.15;;
22502;SDS011;11418;48.118;9.992;2022-07-29T10:04:20;3.25;;;2.47;;
22502;SDS011;11418;48.118;9.992;2022-07-29T10:08:24;2.67;;;2.45;;
22502;SDS011;11418;48.118;9.992;2022-07-29T10:12:26;4.15;;;2.75;;
22502;SDS011;11418;48.118;9.992;2022-07-29T10:16:27;3.40;;;2.50;;
22502;SDS011;11418;48.118;9.992;2022-07-29T10:20:32;4.68;;;2.88;;
22502;SDS011;11418;48.118;9.992;2022-07-29T10:24:33;3.55;;;2.47;;
22502;SDS011;11418;48.118;9.992;2022-07-29T10:28:35;6.65;;;2.58;;
22502;SDS011;11418;48.118;9.992;2022-07-29T10:36:56;3.55;;;2.38;;
22502;SDS011;11418;48.118;9.992;2022-07-29T10:45:57;4.55;;;2.78;;
22502;SDS011;11418;48.118;9.992;2022-07-29T10:50:00;8.63;;;2.90;;
22502;SDS011;11418;48.118;9.992;2022-07-29T10:54:02;6.75;;;2.90;;
22502;SDS011;11418;48.118;9.992;2022-07-29T10:58:15;2.88;;;2.40;;
22502;SDS011;11418;48.118;9.992;2022-07-29T11:15:21;5.85;;;3.20;;
22502;SDS011;11418;48.118;9.992;2022-07-29T11:19:22;3.63;;;2.28;;
22502;SDS011;11418;48.118;9.992;2022-07-29T11:23:24;2.88;;;2.60;;
22502;SDS011;11418;48.118;9.992;2022-07-29T11:27:26;3.10;;;2.60;;
22502;SDS011;11418;48.118;9.992;2022-07-29T11:31:41;3.40;;;2.60;;
22502;SDS011;11418;48.118;9.992;2022-07-29T11:35:43;3.15;;;2.70;;
22502;SDS011;11418;48.118;9.992;2022-07-29T11:40:09;2.92;;;2.63;;
22502;SDS011;11418;48.118;9.992;2022-07-29T11:44:12;2.60;;;2.40;;
22502;SDS011;11418;48.118;9.992;2022-07-29T11:48:16;4.00;;;2.78;;
22502;SDS011;11418;48.118;9.992;2022-07-29T11:52:18;3.45;;;2.60;;
22502;SDS011;11418;48.118;9.992;2022-07-29T11:56:20;3.80;;;2.50;;
22502;SDS011;11418;48.118;9.992;2022-07-29T12:04:31;3.20;;;2.53;;
22502;SDS011;11418;48.118;9.992;2022-07-29T12:08:38;4.03;;;2.70;;
22502;SDS011;11418;48.118;9.992;2022-07-29T12:12:42;3.25;;;2.92;;
22502;SDS011;11418;48.118;9.992;2022-07-29T12:16:42;5.63;;;3.30;;
22502;SDS011;11418;48.118;9.992;2022-07-29T12:20:43;3.97;;;2.92;;
22502;SDS011;11418;48.118;9.992;2022-07-29T12:24:44;4.63;;;3.03;;
22502;SDS011;11418;48.118;9.992;2022-07-29T12:28:45;3.28;;;2.97;;
22502;SDS011;11418;48.118;9.992;2022-07-29T12:32:46;4.50;;;3.10;;
22502;SDS011;11418;48.118;9.992;2022-07-29T12:36:48;3.50;;;2.80;;
22502;SDS011;11418;48.118;9.992;2022-07-29T12:40:49;3.65;;;2.80;;
22502;SDS011;11418;48.118;9.992;2022-07-29T12:44:52;4.03;;;2.88;;
22502;SDS011;11418;48.118;9.992;2022-07-29T12:48:53;3.20;;;2.90;;
22502;SDS011;11418;48.118;9.992;2022-07-29T12:52:54;3.35;;;2.60;;
22502;SDS011;11418;48.118;9.992;2022-07-29T12:57:09;3.22;;;2.78;;
22502;SDS011;11418;48.118;9.992;2022-07-29T13:05:15;4.40;;;3.22;;
22502;SDS011;11418;48.118;9.992;2022-07-29T13:09:20;3.72;;;2.28;;
22502;SDS011;11418;48.118;9.992;2022-07-29T13:13:23;2.75;;;2.38;;
22502;SDS011;11418;48.118;9.992;2022-07-29T13:17:24;2.40;;;2.20;;
22502;SDS011;11418;48.118;9.992;2022-07-29T13:21:27;4.13;;;2.72;;
22502;SDS011;11418;48.118;9.992;2022-07-29T13:25:29;4.10;;;2.80;;
22502;SDS011;11418;48.118;9.992;2022-07-29T13:29:31;2.70;;;2.10;;
22502;SDS011;11418;48.118;9.992;2022-07-29T13:33:33;2.50;;;2.00;;
22502;SDS011;11418;48.118;9.992;2022-07-29T13:37:33;2.90;;;2.25;;
22502;SDS011;11418;48.118;9.992;2022-07-29T13:41:37;1.98;;;1.75;;
22502;SDS011;11418;48.118;9.992;2022-07-29T13:45:38;3.80;;;2.20;;
22502;SDS011;11418;48.118;9.992;2022-07-29T13:49:39;4.38;;;1.90;;
22502;SDS011;11418;48.118;9.992;2022-07-29T13:53:39;3.58;;;1.75;;
22502;SDS011;11418;48.118;9.992;2022-07-29T13:57:40;1.88;;;1.70;;
22502;SDS011;11418;48.118;9.992;2022-07-29T14:01:40;3.22;;;1.73;;
22502;SDS011;11418;48.118;9.992;2022-07-29T14:05:42;5.38;;;1.90;;
22502;SDS011;11418;48.118;9.992;2022-07-29T14:09:42;4.63;;;1.83;;
22502;SDS011;11418;48.118;9.992;2022-07-29T14:13:43;3.25;;;2.00;;
22502;SDS011;11418;48.118;9.992;2022-07-29T14:17:44;3.67;;;2.40;;
22502;SDS011;11418;48.118;9.992;2022-07-29T14:21:44;2.55;;;2.20;;
22502;SDS011;11418;48.118;9.992;2022-07-29T14:25:45;3.58;;;2.15;;
22502;SDS011;11418;48.118;9.992;2022-07-29T14:29:46;5.95;;;2.10;;
22502;SDS011;11418;48.118;9.992;2022-07-29T14:33:46;3.28;;;2.42;;
22502;SDS011;11418;48.118;9.992;2022-07-29T14:37:47;2.97;;;2.45;;
22502;SDS011;11418;48.118;9.992;2022-07-29T14:41:47;3.28;;;2.30;;
22502;SDS011;11418;48.118;9.992;2022-07-29T14:45:48;5.00;;;2.30;;
22502;SDS011;11418;48.118;9.992;2022-07-29T14:49:49;5.25;;;2.00;;
22502;SDS011;11418;48.118;9.992;2022-07-29T14:53:49;11.65;;;2.25;;
22502;SDS011;11418;48.118;9.992;2022-07-29T14:57:50;4.88;;;2.45;;
22502;SDS011;11418;48.118;9.992;2022-07-29T15:01:51;2.63;;;2.42;;
22502;SDS011;11418;48.118;9.992;2022-07-29T15:05:51;5.40;;;2.70;;
22502;SDS011;11418;48.118;9.992;2022-07-29T15:09:52;2.50;;;2.20;;
22502;SDS011;11418;48.118;9.992;2022-07-29T15:13:52;3.53;;;2.45;;
22502;SDS011;11418;48.118;9.992;2022-07-29T15:17:53;24.00;;;6.28;;
22502;SDS011;11418;48.118;9.992;2022-07-29T15:21:57;33.90;;;7.53;;
22502;SDS011;11418;48.118;9.992;2022-07-29T15:25:57;8.00;;;5.70;;
22502;SDS011;11418;48.118;9.992;2022-07-29T15:29:58;5.85;;;4.07;;
22502;SDS011;11418;48.118;9.992;2022-07-29T15:33:58;13.95;;;5.50;;
22502;SDS011;11418;48.118;9.992;2022-07-29T15:37:59;8.43;;;4.53;;
22502;SDS011;11418;48.118;9.992;2022-07-29T15:41:59;8.38;;;5.68;;
22502;SDS011;11418;48.118;9.992;2022-07-29T15:46:00;8.50;;;5.55;;
22502;SDS011;11418;48.118;9.992;2022-07-29T15:50:19;5.88;;;5.15;;
22502;SDS011;11418;48.118;9.992;2022-07-29T15:54:21;7.03;;;5.22;;
22502;SDS011;11418;48.118;9.992;2022-07-29T15:58:21;8.05;;;6.15;;
22502;SDS011;11418;48.118;9.992;2022-07-29T16:02:22;8.60;;;6.40;;
22502;SDS011;11418;48.118;9.992;2022-07-29T16:06:25;11.07;;;6.80;;
22502;SDS011;11418;48.118;9.992;2022-07-29T16:10:26;10.15;;;7.40;;
22502;SDS011;11418;48.118;9.992;2022-07-29T16:14:27;10.63;;;6.78;;
22502;SDS011;11418;48.118;9.992;2022-07-29T16:18:27;8.23;;;6.70;;
22502;SDS011;11418;48.118;9.992;2022-07-29T16:22:28;5.55;;;4.97;;
22502;SDS011;11418;48.118;9.992;2022-07-29T16:26:29;7.45;;;5.70;;
22502;SDS011;11418;48.118;9.992;2022-07-29T16:35:27;6.18;;;5.57;;
22502;SDS011;11418;48.118;9.992;2022-07-29T16:39:29;9.07;;;7.28;;
22502;SDS011;11418;48.118;9.992;2022-07-29T16:43:39;9.00;;;5.65;;
22502;SDS011;11418;48.118;9.992;2022-07-29T16:47:40;5.53;;;4.35;;
22502;SDS011;11418;48.118;9.992;2022-07-29T16:51:40;4.65;;;3.92;;
22502;SDS011;11418;48.118;9.992;2022-07-29T16:55:41;5.15;;;4.18;;
22502;SDS011;11418;48.118;9.992;2022-07-29T16:59:41;9.38;;;4.68;;
22502;SDS011;11418;48.118;9.992;2022-07-29T17:03:42;6.20;;;4.57;;
22502;SDS011;11418;48.118;9.992;2022-07-29T17:08:01;6.70;;;4.95;;
22502;SDS011;11418;48.118;9.992;2022-07-29T17:12:02;5.88;;;5.00;;
22502;SDS011;11418;48.118;9.992;2022-07-29T17:16:03;8.75;;;6.63;;
22502;SDS011;11418;48.118;9.992;2022-07-29T17:20:03;9.15;;;5.25;;
22502;SDS011;11418;48.118;9.992;2022-07-29T17:24:05;8.05;;;4.88;;
22502;SDS011;11418;48.118;9.992;2022-07-29T17:28:05;6.55;;;5.20;;
22502;SDS011;11418;48.118;9.992;2022-07-29T17:32:07;7.80;;;5.40;;
22502;SDS011;11418;48.118;9.992;2022-07-29T17:36:08;5.43;;;4.93;;
22502;SDS011;11418;48.118;9.992;2022-07-29T17:40:24;5.25;;;4.60;;
22502;SDS011;11418;48.118;9.992;2022-07-29T17:44:24;6.53;;;4.40;;
22502;SDS011;11418;48.118;9.992;2022-07-29T17:48:25;5.05;;;4.55;;
22502;SDS011;11418;48.118;9.992;2022-07-29T17:52:25;7.38;;;5.60;;
22502;SDS011;11418;48.118;9.992;2022-07-29T17:56:26;5.93;;;5.32;;
22502;SDS011;11418;48.118;9.992;2022-07-29T18:00:26;6.93;;;6.22;;
22502;SDS011;11418;48.118;9.992;2022-07-29T18:04:27;8.27;;;7.05;;
22502;SDS011;11418;48.118;9.992;2022-07-29T18:08:29;8.30;;;7.40;;
22502;SDS011;11418;48.118;9.992;2022-07-29T18:12:30;9.48;;;8.18;;
22502;SDS011;11418;48.118;9.992;2022-07-29T18:16:31;7.88;;;6.88;;
22502;SDS011;11418;48.118;9.992;2022-07-29T18:20:31;8.63;;;7.68;;
22502;SDS011;11418;48.118;9.992;2022-07-29T18:24:32;8.82;;;7.97;;
22502;SDS011;11418;48.118;9.992;2022-07-29T18:28:34;10.32;;;8.23;;
22502;SDS011;11418;48.118;9.992;2022-07-29T18:32:35;11.25;;;8.70;;
22502;SDS011;11418;48.118;9.992;2022-07-29T18:36:35;8.40;;;7.05;;
22502;SDS011;11418;48.118;9.992;2022-07-29T18:40:36;9.25;;;8.20;;
22502;SDS011;11418;48.118;9.992;2022-07-29T18:44:39;10.65;;;8.20;;
22502;SDS011;11418;48.118;9.992;2022-07-29T18:48:39;11.70;;;9.43;;
22502;SDS011;11418;48.118;9.992;2022-07-29T18:52:40;9.43;;;8.30;;
22502;SDS011;11418;48.118;9.992;2022-07-29T18:56:40;11.00;;;8.63;;
22502;SDS011;11418;48.118;9.992;2022-07-29T19:00:41;14.13;;;8.75;;
22502;SDS011;11418;48.118;9.992;2022-07-29T19:04:42;9.60;;;8.30;;
22502;SDS011;11418;48.118;9.992;2022-07-29T19:08:42;10.27;;;7.95;;
22502;SDS011;11418;48.118;9.992;2022-07-29T19:12:43;9.52;;;8.30;;
22502;SDS011;11418;48.118;9.992;2022-07-29T19:16:43;9.98;;;9.00;;
22502;SDS011;11418;48.118;9.992;2022-07-29T19:20:44;10.50;;;9.50;;
22502;SDS011;11418;48.118;9.992;2022-07-29T19:24:44;9.98;;;8.98;;
22502;SDS011;11418;48.118;9.992;2022-07-29T19:28:45;12.00;;;9.90;;
22502;SDS011;11418;48.118;9.992;2022-07-29T19:32:46;10.07;;;9.00;;
22502;SDS011;11418;48.118;9.992;2022-07-29T19:36:47;12.98;;;9.57;;
22502;SDS011;11418;48.118;9.992;2022-07-29T19:40:48;9.23;;;8.32;;
22502;SDS011;11418;48.118;9.992;2022-07-29T19:44:48;9.25;;;8.25;;
22502;SDS011;11418;48.118;9.992;2022-07-29T19:48:49;10.13;;;8.32;;
22502;SDS011;11418;48.118;9.992;2022-07-29T19:52:50;9.85;;;8.85;;
22502;SDS011;11418;48.118;9.992;2022-07-29T19:56:51;12.75;;;8.18;;
22502;SDS011;11418;48.118;9.992;2022-07-29T20:00:52;10.15;;;8.48;;
22502;SDS011;11418;48.118;9.992;2022-07-29T20:04:52;7.78;;;6.90;;
22502;SDS011;11418;48.118;9.992;2022-07-29T20:08:53;11.65;;;7.68;;
22502;SDS011;11418;48.118;9.992;2022-07-29T20:12:54;8.57;;;6.75;;
22502;SDS011;11418;48.118;9.992;2022-07-29T20:16:55;6.53;;;5.40;;
22502;SDS011;11418;48.118;9.992;2022-07-29T20:20:55;6.68;;;5.78;;
22502;SDS011;11418;48.118;9.992;2022-07-29T20:24:56;7.32;;;5.70;;
22502;SDS011;11418;48.118;9.992;2022-07-29T20:28:57;5.75;;;5.15;;
22502;SDS011;11418;48.118;9.992;2022-07-29T20:32:57;9.00;;;6.47;;
22502;SDS011;11418;48.118;9.992;2022-07-29T20:36:58;6.13;;;5.43;;
22502;SDS011;11418;48.118;9.992;2022-07-29T20:41:00;8.85;;;6.57;;
22502;SDS011;11418;48.118;9.992;2022-07-29T20:45:00;6.72;;;6.13;;
22502;SDS011;11418;48.118;9.992;2022-07-29T20:49:02;8.50;;;5.88;;
22502;SDS011;11418;48.118;9.992;2022-07-29T20:53:03;7.28;;;5.75;;
22502;SDS011;11418;48.118;9.992;2022-07-29T20:57:03;7.35;;;5.80;;
22502;SDS011;11418;48.118;9.992;2022-07-29T21:01:04;9.00;;;5.50;;
22502;SDS011;11418;48.118;9.992;2022-07-29T21:05:05;5.97;;;5.38;;
22502;SDS011;11418;48.118;9.992;2022-07-29T21:09:06;5.75;;;5.25;;
22502;SDS011;11418;48.118;9.992;2022-07-29T21:13:07;5.85;;;5.22;;
22502;SDS011;11418;48.118;9.992;2022-07-29T21:17:07;6.38;;;5.78;;
22502;SDS011;11418;48.118;9.992;2022-07-29T21:21:08;6.43;;;5.25;;
22502;SDS011;11418;48.118;9.992;2022-07-29T21:25:09;6.60;;;5.68;;
22502;SDS011;11418;48.118;9.992;2022-07-29T21:29:10;7.18;;;5.57;;
22502;SDS011;11418;48.118;9.992;2022-07-29T21:33:11;7.85;;;5.68;;
22502;SDS011;11418;48.118;9.992;2022-07-29T21:37:12;6.57;;;5.50;;
22502;SDS011;11418;48.118;9.992;2022-07-29T21:41:12;7.28;;;5.32;;
22502;SDS011;11418;48.118;9.992;2022-07-29T21:45:14;6.35;;;5.07;;
22502;SDS011;11418;48.118;9.992;2022-07-29T21:49:14;7.30;;;5.55;;
22502;SDS011;11418;48.118;9.992;2022-07-29T21:53:15;6.10;;;5.20;;
22502;SDS011;11418;48.118;9.992;2022-07-29T21:57:16;6.95;;;4.80;;
22502;SDS011;11418;48.118;9.992;2022-07-29T22:01:17;5.97;;;4.82;;
22502;SDS011;11418;48.118;9.992;2022-07-29T22:05:18;4.97;;;4.13;;
22502;SDS011;11418;48.118;9.992;2022-07-29T22:09:18;7.63;;;5.28;;
22502;SDS011;11418;48.118;9.992;2022-07-29T22:13:19;5.53;;;5.03;;
22502;SDS011;11418;48.118;9.992;2022-07-29T22:17:20;5.07;;;4.47;;
22502;SDS011;11418;48.118;9.992;2022-07-29T22:21:22;5.15;;;4.57;;
22502;SDS011;11418;48.118;9.992;2022-07-29T22:25:22;5.63;;;4.78;;
22502;SDS011;11418;48.118;9.992;2022-07-29T22:29:23;4.88;;;4.47;;
22502;SDS011;11418;48.118;9.992;2022-07-29T22:33:25;6.28;;;5.03;;
22502;SDS011;11418;48.118;9.992;2022-07-29T22:37:27;4.88;;;4.40;;
22502;SDS011;11418;48.118;9.992;2022-07-29T22:41:28;6.00;;;4.72;;
22502;SDS011;11418;48.118;9.992;2022-07-29T22:45:28;5.65;;;5.05;;
22502;SDS011;11418;48.118;9.992;2022-07-29T22:49:29;7.38;;;5.13;;
22502;SDS011;11418;48.118;9.992;2022-07-29T22:53:30;6.10;;;5.15;;
22502;SDS011;11418;48.118;9.992;2022-07-29T22:57:30;6.63;;;4.88;;
22502;SDS011;11418;48.118;9.992;2022-07-29T23:01:31;5.50;;;4.70;;
22502;SDS011;11418;48.118;9.992;2022-07-29T23:05:31;6.32;;;5.25;;
22502;SDS011;11418;48.118;9.992;2022-07-29T23:09:32;5.97;;;5.22;;
22502;SDS011;11418;48.118;9.992;2022-07-29T23:13:33;6.20;;;5.55;;
22502;SDS011;11418;48.118;9.992;2022-07-29T23:17:33;7.60;;;5.35;;
22502;SDS011;11418;48.118;9.992;2022-07-29T23:21:34;7.82;;;6.32;;
22502;SDS011;11418;48.118;9.992;2022-07-29T23:25:34;6.57;;;5.97;;
22502;SDS011;11418;48.118;9.992;2022-07-29T23:29:35;6.88;;;6.13;;
22502;SDS011;11418;48.118;9.992;2022-07-29T23:33:36;7.22;;;6.50;;
22502;SDS011;11418;48.118;9.992;2022-07-29T23:37:36;11.88;;;6.82;;
22502;SDS011;11418;48.118;9.992;2022-07-29T23:41:37;7.75;;;6.57;;
22502;SDS011;11418;48.118;9.992;2022-07-29T23:45:38;7.90;;;6.57;;
22502;SDS011;11418;48.118;9.992;2022-07-29T23:49:38;7.40;;;6.05;;
22502;SDS011;11418;48.118;9.992;2022-07-29T23:53:39;7.60;;;6.18;;
22502;SDS011;11418;48.118;9.992;2022-07-29T23:57:39;6.80;;;6.13;;
